Time;durP1;ratioP1;P1;durP2;ratioP2;P2;SDS_P1;SDS_P2;PMS_P1;PMS_P2;Temp;Humidity;BMP_temperature;BMP_pressure;BME280_temperature;BME280_humidity;BME280_pressure;Samples;Min_cycle;Max_cycle;Signal;HPM_P1;HPM_P2
2023/12/25 07:45:00;;;;;;;;;;;;;;;8.75;100.00;99377.28;5587765;23;19956;-86
2023/12/25 07:47:26;;;;;;;;;;;;;;;8.64;100.00;99369.78;5033616;28;20367;-82
2023/12/25 07:49:51;;;;;;;;;;;;;;;8.81;100.00;99371.75;5034796;28;19995;-82
2023/12/25 07:52:17;;;;;;;;;;;;;;;8.81;100.00;99369.09;5034276;28;19928;-82
2023/12/25 07:54:42;;;;;;;;;;;;;;;8.80;100.00;99370.88;5034472;28;20347;-82
2023/12/25 07:57:07;;;;;;;;;;;;;;;8.67;100.00;99369.66;5034119;28;20299;-83
2023/12/25 07:59:32;;;;;;;;;;;;;;;8.75;100.00;99372.00;5033026;28;20311;-82
2023/12/25 08:01:57;;;;;;;;;;;;;;;8.76;100.00;99374.56;5024438;28;19913;-82
2023/12/25 08:04:23;;;;;;;;;;;;;;;8.73;100.00;99378.19;5034308;28;19921;-83
2023/12/25 08:06:48;;;;;;;;;;;;;;;8.79;100.00;99371.81;5033888;28;19917;-83
2023/12/25 08:09:14;;;;;;;;;;;;;;;8.90;100.00;99374.84;5034030;28;19982;-83
2023/12/25 08:11:39;;;;;;;;;;;;;;;8.79;100.00;99381.50;5033789;28;20010;-83
2023/12/25 08:14:04;;;;;;;;;;;;;;;8.84;100.00;99383.03;5032561;28;19928;-82
2023/12/25 08:16:29;;;;;;;;;;;;;;;8.81;100.00;99383.16;5032552;28;20374;-82
2023/12/25 08:18:55;;;;;;;;;;;;;;;8.77;100.00;99386.84;5023309;28;19924;-83
2023/12/25 08:21:20;;;;;;;;;;;;;;;8.85;100.00;99389.16;5024231;28;19982;-83
2023/12/25 08:23:45;;;;;;;;;;;;;;;8.81;100.00;99400.81;5033746;28;19927;-86
2023/12/25 08:26:11;;;;;;;;;;;;;;;8.89;100.00;99391.63;5033662;28;20253;-84
2023/12/25 08:28:37;;;;;;;;;;;;;;;8.88;100.00;99400.44;5033544;28;19939;-83
2023/12/25 08:31:02;;;;;;;;;;;;;;;8.76;100.00;99408.03;5022779;28;19917;-84
2023/12/25 08:33:27;;;;;;;;;;;;;;;8.87;100.00;99416.38;5033537;28;20378;-84
2023/12/25 08:35:53;;;;;;;;;;;;;;;8.96;100.00;99415.16;5032624;28;19923;-85
2023/12/25 08:38:18;;;;;;;;;;;;;;;8.85;100.00;99410.31;5033378;28;19955;-84
2023/12/25 08:40:44;;;;;;;;;;;;;;;8.75;100.00;99415.13;5033520;28;19987;-84
2023/12/25 08:43:09;;;;;;;;;;;;;;;8.79;100.00;99418.47;5033154;28;19980;-85
2023/12/25 08:45:34;;;;;;;;;;;;;;;8.86;100.00;99412.88;5032005;28;19928;-84
2023/12/25 08:47:59;;;;;;;;;;;;;;;8.86;100.00;99410.25;5033222;28;19924;-85
2023/12/25 08:50:25;;;;;;;;;;;;;;;8.84;100.00;99409.44;5033188;28;19977;-84
2023/12/25 08:52:50;;;;;;;;;;;;;;;8.89;100.00;99418.03;5023501;28;19917;-84
2023/12/25 08:55:15;;;;;;;;;;;;;;;8.91;100.00;99417.97;5033152;28;19921;-84
2023/12/25 08:57:40;;;;;;;;;;;;;;;8.97;100.00;99419.50;5032999;28;19918;-90
2023/12/25 09:00:06;;;;;;;;;;;;;;;8.99;100.00;99417.66;5031687;28;20296;-85
2023/12/25 09:02:31;;;;;;;;;;;;;;;8.90;100.00;99417.13;5033097;28;20291;-86
2023/12/25 09:04:57;;;;;;;;;;;;;;;8.95;100.00;99422.22;5032946;28;19927;-87
2023/12/25 09:07:22;;;;;;;;;;;;;;;9.02;100.00;99422.81;5032780;28;19924;-85
2023/12/25 09:09:47;;;;;;;;;;;;;;;8.91;100.00;99426.75;5023149;28;19981;-89
2023/12/25 09:12:13;;;;;;;;;;;;;;;8.88;100.00;99431.31;5032813;28;20157;-90
2023/12/25 09:14:38;;;;;;;;;;;;;;;8.85;100.00;99442.84;5021562;28;19921;-85
2023/12/25 09:17:03;;;;;;;;;;;;;;;8.86;100.00;99444.59;5032706;28;20284;-87
2023/12/25 09:19:29;;;;;;;;;;;;;;;8.94;100.00;99446.06;5032966;28;20003;-89
2023/12/25 09:21:54;;;;;;;;;;;;;;;8.87;100.00;99441.03;5021912;28;19917;-83
2023/12/25 09:24:19;;;;;;;;;;;;;;;8.94;100.00;99452.19;5022982;28;19924;-85
2023/12/25 09:26:44;;;;;;;;;;;;;;;8.93;100.00;99447.81;5032693;28;19940;-85
2023/12/25 09:29:11;;;;;;;;;;;;;;;8.94;100.00;99441.63;5031161;28;19999;-85
2023/12/25 09:31:36;;;;;;;;;;;;;;;8.93;100.00;99444.34;5032451;28;19921;-86
2023/12/25 09:34:01;;;;;;;;;;;;;;;8.92;100.00;99448.78;5032454;28;19975;-87
2023/12/25 09:36:27;;;;;;;;;;;;;;;8.97;100.00;99448.59;5032352;28;19928;-88
2023/12/25 09:38:52;;;;;;;;;;;;;;;8.94;100.00;99454.84;5032450;28;19994;-86
2023/12/25 09:41:18;;;;;;;;;;;;;;;9.05;100.00;99459.69;5022525;28;19959;-88
2023/12/25 09:43:45;;;;;;;;;;;;;;;9.07;100.00;99463.97;5022038;28;19921;-85
2023/12/25 09:46:10;;;;;;;;;;;;;;;9.12;100.00;99465.56;5031402;28;19932;-81
2023/12/25 09:48:37;;;;;;;;;;;;;;;9.10;100.00;99463.00;5032104;28;19917;-86
2023/12/25 09:51:03;;;;;;;;;;;;;;;9.03;100.00;99472.09;5032353;28;19970;-86
2023/12/25 09:53:28;;;;;;;;;;;;;;;8.97;100.00;99464.44;5031338;28;20004;-85
2023/12/25 09:55:54;;;;;;;;;;;;;;;9.01;100.00;99463.38;5032084;28;19928;-87
2023/12/25 09:58:20;;;;;;;;;;;;;;;8.95;100.00;99471.53;5022338;28;19917;-88
2023/12/25 10:00:46;;;;;;;;;;;;;;;8.93;100.00;99468.97;5030941;28;20003;-91
2023/12/25 10:03:11;;;;;;;;;;;;;;;8.95;100.00;99463.63;5032132;28;20004;-84
2023/12/25 10:05:37;;;;;;;;;;;;;;;9.00;100.00;99461.63;5032071;28;19917;-84
2023/12/25 13:47:01;;;;;;;;;;;;;;;9.14;100.00;99405.56;4998737;28;20283;-87
2023/12/25 13:49:27;;;;;;;;;;;;;;;9.36;100.00;99402.84;5012632;28;19921;-87
2023/12/25 13:51:52;;;;;;;;;;;;;;;9.32;100.00;99404.78;5012297;28;19918;-87
2023/12/25 13:54:18;;;;;;;;;;;;;;;9.13;100.00;99409.16;5012676;28;20372;-87
2023/12/25 13:56:43;;;;;;;;;;;;;;;9.01;100.00;99410.50;4994514;28;20344;-84
2023/12/25 13:59:08;;;;;;;;;;;;;;;8.93;100.00;99416.13;5012414;28;19928;-88
2023/12/25 14:01:34;;;;;;;;;;;;;;;9.03;100.00;99409.53;4976487;28;19917;-86
2023/12/25 14:04:00;;;;;;;;;;;;;;;9.13;100.00;99409.16;5012362;28;20292;-86
2023/12/25 14:06:27;;;;;;;;;;;;;;;9.13;100.00;99406.50;5012263;28;19923;-88
2023/12/25 14:08:52;;;;;;;;;;;;;;;9.00;100.00;99408.78;5012466;28;19922;-87
2023/12/25 14:11:18;;;;;;;;;;;;;;;9.04;100.00;99413.88;5012348;28;20284;-87
2023/12/25 14:13:43;;;;;;;;;;;;;;;8.84;100.00;99414.75;5012218;28;20340;-86
2023/12/25 14:16:08;;;;;;;;;;;;;;;8.75;100.00;99412.47;5010930;28;19929;-87
2023/12/25 14:18:33;;;;;;;;;;;;;;;8.70;100.00;99415.28;4994391;28;19918;-86
2023/12/25 14:20:59;;;;;;;;;;;;;;;8.83;100.00;99413.00;5012199;28;20276;-88
2023/12/25 14:23:24;;;;;;;;;;;;;;;8.83;100.00;99423.56;5012147;28;19980;-89
2023/12/25 14:25:50;;;;;;;;;;;;;;;8.78;100.00;99422.91;5012235;28;20524;-88
2023/12/25 14:28:15;;;;;;;;;;;;;;;8.73;100.00;99419.59;4994136;28;19918;-87
2023/12/25 14:30:41;;;;;;;;;;;;;;;8.50;100.00;99425.81;4992952;28;19922;-89
2023/12/25 14:33:08;;;;;;;;;;;;;;;8.54;100.00;99415.06;5012000;28;19922;-88
2023/12/25 14:35:33;;;;;;;;;;;;;;;8.46;100.00;99411.88;4994254;28;19921;-88
2023/12/25 14:37:59;;;;;;;;;;;;;;;8.56;100.00;99414.16;5010299;28;19922;-88
2023/12/25 14:40:24;;;;;;;;;;;;;;;8.48;100.00;99412.66;5012229;28;19922;-88
2023/12/25 14:42:51;;;;;;;;;;;;;;;8.49;100.00;99414.41;5012128;28;20008;-88
2023/12/25 14:45:16;;;;;;;;;;;;;;;8.19;100.00;99417.28;5010423;28;19945;-87
2023/12/25 14:47:42;;;;;;;;;;;;;;;8.31;100.00;99415.09;4993903;28;19932;-88
2023/12/25 14:50:08;;;;;;;;;;;;;;;8.43;100.00;99416.41;5011665;28;20471;-88
2023/12/25 14:52:33;;;;;;;;;;;;;;;8.16;100.00;99414.75;5012052;28;19928;-87
2023/12/25 14:54:58;;;;;;;;;;;;;;;8.12;100.00;99414.94;5011980;28;19918;-83
2023/12/25 14:57:30;;;;;;;;;;;;;;;7.77;100.00;99420.66;5015511;28;19921;-92
2023/12/25 15:00:14;;;;;;;;;;;;;;;7.48;100.00;99431.38;5013919;28;19975;-91
2023/12/25 15:02:39;;;;;;;;;;;;;;;7.34;100.00;99427.47;5015284;28;19918;-87
2023/12/25 15:05:05;;;;;;;;;;;;;;;7.41;100.00;99433.38;5015448;28;19921;-89
2023/12/25 15:07:33;;;;;;;;;;;;;;;7.39;100.00;99430.81;5015535;28;19964;-91
2023/12/25 15:09:58;;;;;;;;;;;;;;;7.33;100.00;99428.38;5015924;28;19991;-84
2023/12/25 15:12:23;;;;;;;;;;;;;;;7.48;100.00;99439.31;5015347;28;19921;-85
2023/12/25 15:14:49;;;;;;;;;;;;;;;7.61;100.00;99438.81;5014020;28;20055;-85
2023/12/25 15:17:52;;;;;;;;;;;;;;;7.60;100.00;99438.88;5015106;28;20377;-89
2023/12/25 15:20:19;;;;;;;;;;;;;;;7.63;100.00;99444.03;5011897;28;19964;-87
2023/12/25 15:23:13;;;;;;;;;;;;;;;7.63;100.00;99447.53;5015139;28;20357;-91
2023/12/25 15:25:56;;;;;;;;;;;;;;;;;;;;;
2023/12/25 15:28:21;;;;;;;;;;;;;;;7.75;100.00;99450.63;5014982;28;19923;-89
2023/12/25 15:30:49;;;;;;;;;;;;;;;7.73;100.00;99449.81;5013730;28;20008;-86
2023/12/25 15:33:15;;;;;;;;;;;;;;;7.76;100.00;99455.84;5014389;28;19921;-87
2023/12/25 15:35:40;;;;;;;;;;;;;;;7.81;100.00;99448.63;5014846;28;19918;-86
2023/12/25 15:38:06;;;;;;;;;;;;;;;7.86;100.00;99455.50;5014698;28;20244;-87
2023/12/25 15:40:32;;;;;;;;;;;;;;;7.92;100.00;99456.13;5015031;28;19960;-88
2023/12/25 15:42:57;;;;;;;;;;;;;;;7.97;100.00;99453.34;4997100;28;19960;-87
2023/12/25 15:45:23;;;;;;;;;;;;;;;8.08;100.00;99455.56;4995763;28;19923;-87
2023/12/25 15:47:48;;;;;;;;;;;;;;;8.21;100.00;99450.69;5014532;28;19929;-89
2023/12/25 15:50:14;;;;;;;;;;;;;;;8.24;100.00;99455.84;5014552;28;20392;-89
2023/12/25 15:52:42;;;;;;;;;;;;;;;8.32;100.00;99453.78;4996701;28;20401;-90
2023/12/25 15:55:09;;;;;;;;;;;;;;;8.29;100.00;99464.44;4996187;28;19922;-90
2023/12/25 15:57:37;;;;;;;;;;;;;;;8.36;100.00;99460.66;5014852;28;20296;-86
2023/12/25 16:00:04;;;;;;;;;;;;;;;8.45;100.00;99460.31;5013643;28;19980;-92
2023/12/25 16:02:29;;;;;;;;;;;;;;;8.46;100.00;99461.19;5014464;28;20043;-91
2023/12/25 16:04:55;;;;;;;;;;;;;;;8.45;100.00;99462.09;5014709;28;20436;-91
2023/12/25 16:07:40;;;;;;;;;;;;;;;8.33;100.00;99463.41;5014067;28;19921;-87
2023/12/25 16:10:06;;;;;;;;;;;;;;;8.46;100.00;99469.97;5014812;28;19963;-93
2023/12/25 16:12:31;;;;;;;;;;;;;;;8.44;100.00;99458.63;4996813;28;20441;-91
2023/12/25 16:14:56;;;;;;;;;;;;;;;8.41;100.00;99474.53;5013726;28;19925;-91
2023/12/25 16:17:21;;;;;;;;;;;;;;;8.47;100.00;99474.34;5015166;28;19927;-88
2023/12/25 16:19:47;;;;;;;;;;;;;;;8.62;100.00;99470.22;4996914;28;20258;-93
2023/12/25 16:25:16;;;;;;;;;;;;;;;8.67;100.00;99470.03;5328355;23;20338;-87
2023/12/25 16:27:49;;;;;;;;;;;;;;;8.70;100.00;99475.19;5035992;28;20014;-91
2023/12/25 16:30:14;;;;;;;;;;;;;;;8.72;100.00;99479.47;5034359;28;19927;-92
2023/12/25 16:32:40;;;;;;;;;;;;;;;8.74;100.00;99476.78;5054143;28;20386;-90
2023/12/25 16:35:05;;;;;;;;;;;;;;;8.76;100.00;99477.59;5053831;28;20011;-87
2023/12/25 16:37:31;;;;;;;;;;;;;;;8.83;100.00;99470.28;5054128;28;19920;-90
2023/12/25 16:39:56;;;;;;;;;;;;;;;8.87;100.00;99472.72;5020455;28;19917;-82
2023/12/25 16:42:21;;;;;;;;;;;;;;;8.90;100.00;99471.72;5053404;28;20134;-89
2023/12/25 16:44:46;;;;;;;;;;;;;;;8.93;100.00;99481.31;5051980;28;20326;-90
2023/12/25 16:47:12;;;;;;;;;;;;;;;8.94;100.00;99483.06;5053220;28;20003;-90
2023/12/25 16:49:37;;;;;;;;;;;;;;;8.92;100.00;99475.19;5053332;28;19951;-90
2023/12/25 16:52:02;;;;;;;;;;;;;;;8.95;100.00;99468.91;5053194;28;20330;-90
2023/12/25 16:54:28;;;;;;;;;;;;;;;8.99;100.00;99467.88;5053183;28;19924;-87
2023/12/25 16:57:12;;;;;;;;;;;;;;;8.95;100.00;99480.34;5053184;28;20326;-92
2023/12/25 16:59:42;;;;;;;;;;;;;;;8.95;100.00;99471.53;5033947;28;19927;-91
2023/12/25 17:02:08;;;;;;;;;;;;;;;9.00;100.00;99474.84;5052945;28;19917;-92
2023/12/25 17:04:36;;;;;;;;;;;;;;;9.02;100.00;99479.16;5053072;28;19924;-88
2023/12/25 17:07:01;;;;;;;;;;;;;;;9.03;100.00;99478.25;5052127;28;19917;-87
2023/12/25 17:09:26;;;;;;;;;;;;;;;9.03;100.00;99482.66;5052627;28;20387;-87
2023/12/25 17:11:52;;;;;;;;;;;;;;;9.08;100.00;99483.34;5052774;28;19924;-90
2023/12/25 17:14:17;;;;;;;;;;;;;;;9.08;100.00;99481.56;5052591;28;20046;-90
2023/12/25 17:16:42;;;;;;;;;;;;;;;9.06;100.00;99479.88;5033618;28;20004;-89
2023/12/25 17:19:07;;;;;;;;;;;;;;;9.07;100.00;99478.97;5052141;28;19917;-88
2023/12/25 17:21:33;;;;;;;;;;;;;;;9.09;100.00;99487.69;5052993;28;19925;-88
2023/12/25 17:23:58;;;;;;;;;;;;;;;9.10;100.00;99489.41;5052437;28;20272;-90
2023/12/25 17:26:24;;;;;;;;;;;;;;;9.12;100.00;99492.84;5034549;28;19960;-87
2023/12/25 17:28:49;;;;;;;;;;;;;;;9.13;100.00;99489.28;5121312;22;20319;-88
2023/12/25 17:31:14;;;;;;;;;;;;;;;9.14;100.00;99493.63;4993593;28;19928;-84
2023/12/25 17:33:40;;;;;;;;;;;;;;;9.16;100.00;99497.09;4995001;28;20280;-85
2023/12/25 17:36:06;;;;;;;;;;;;;;;9.18;100.00;99500.53;5012751;28;19922;-87
2023/12/25 17:38:31;;;;;;;;;;;;;;;9.14;100.00;99498.94;5013468;28;19917;-90
2023/12/25 17:40:56;;;;;;;;;;;;;;;9.12;100.00;99498.13;4995113;28;20280;-89
2023/12/25 17:43:22;;;;;;;;;;;;;;;9.16;100.00;99497.09;5022042;23;20335;-88
2023/12/25 17:48:36;;;;;;;;;;;;;;;9.16;100.00;99501.50;5157024;23;19933;-88
2023/12/25 17:51:05;;;;;;;;;;;;;;;9.19;100.00;99499.63;5007644;28;19947;-85
2023/12/25 17:53:30;;;;;;;;;;;;;;;9.16;100.00;99496.22;5014676;28;19917;-87
2023/12/25 17:55:55;;;;;;;;;;;;;;;9.22;100.00;99493.31;5032051;28;19921;-87
2023/12/25 17:58:21;;;;;;;;;;;;;;;9.22;100.00;99493.31;5031933;28;19971;-87
2023/12/25 18:00:52;;;;;;;;;;;;;;;9.14;100.00;99495.44;5030972;28;20028;-86
2023/12/25 18:03:18;;;;;;;;;;;;;;;9.14;100.00;99495.44;5031769;28;19921;-85
2023/12/25 18:05:43;;;;;;;;;;;;;;;9.22;100.00;99491.56;5032207;28;19917;-92
2023/12/25 18:08:08;;;;;;;;;;;;;;;9.27;100.00;99494.03;5006480;28;19917;-90
2023/12/25 18:10:41;;;;;;;;;;;;;;;9.21;100.00;99491.63;5032149;28;20398;-88
2023/12/25 18:13:06;;;;;;;;;;;;;;;9.22;100.00;99488.03;5033447;28;19924;-89
2023/12/25 18:15:31;;;;;;;;;;;;;;;9.21;100.00;99489.84;5032771;28;19922;-87
2023/12/25 18:17:56;;;;;;;;;;;;;;;9.25;100.00;99485.25;5032359;28;19984;-87
2023/12/25 18:20:22;;;;;;;;;;;;;;;9.27;100.00;99476.34;5031870;28;20115;-94
2023/12/25 18:22:47;;;;;;;;;;;;;;;9.26;100.00;99479.06;5032050;28;19932;-89
2023/12/25 18:25:12;;;;;;;;;;;;;;;9.27;100.00;99476.34;5014028;28;20192;-93
2023/12/25 18:27:38;;;;;;;;;;;;;;;9.24;100.00;99487.06;5005651;28;20294;-88
2023/12/25 18:30:03;;;;;;;;;;;;;;;9.26;100.00;99479.91;5030687;28;19917;-88
2023/12/25 18:32:31;;;;;;;;;;;;;;;9.29;100.00;99480.72;5035205;28;19917;-93
2023/12/25 18:34:56;;;;;;;;;;;;;;;9.33;100.00;99484.94;5035814;28;20002;-84
2023/12/25 18:37:21;;;;;;;;;;;;;;;9.31;100.00;99486.81;5017853;28;19967;-89
2023/12/25 18:39:54;;;;;;;;;;;;;;;9.34;100.00;99495.47;5010010;28;19917;-92
2023/12/25 18:42:20;;;;;;;;;;;;;;;9.35;100.00;99491.03;5017628;28;19917;-91
2023/12/25 18:44:51;;;;;;;;;;;;;;;9.34;100.00;99484.88;5036407;28;19924;-92
2023/12/25 18:47:17;;;;;;;;;;;;;;;9.36;100.00;99485.66;5018179;28;19921;-94
2023/12/25 18:49:42;;;;;;;;;;;;;;;9.33;100.00;99487.59;5035824;28;20011;-83
2023/12/25 18:52:07;;;;;;;;;;;;;;;9.41;100.00;99482.84;5035324;28;19917;-89
2023/12/25 18:54:35;;;;;;;;;;;;;;;9.34;100.00;99482.25;5017836;28;19943;-89
2023/12/25 18:57:03;;;;;;;;;;;;;;;9.31;100.00;99486.81;5016692;28;19921;-87
2023/12/25 18:59:29;;;;;;;;;;;;;;;9.92;100.00;99484.09;5035135;28;19917;-85
2023/12/25 19:01:54;;;;;;;;;;;;;;;7.95;100.00;99471.00;5017033;28;19924;-86
2023/12/25 19:04:19;;;;;;;;;;;;;;;7.06;100.00;99475.84;5035450;28;19917;-88
2023/12/25 19:06:46;;;;;;;;;;;;;;;6.75;100.00;99467.22;5035337;28;19921;-91
2023/12/25 19:09:11;;;;;;;;;;;;;;;6.80;100.00;99474.09;5035800;28;19921;-87
2023/12/25 19:11:42;;;;;;;;;;;;;;;6.44;100.00;99471.69;5035488;28;19917;-88
2023/12/25 19:14:07;;;;;;;;;;;;;;;6.26;100.00;99472.28;5035207;28;19913;-92
2023/12/25 19:16:33;;;;;;;;;;;;;;;6.10;100.00;99466.59;5034138;28;20306;-90
2023/12/25 19:19:01;;;;;;;;;;;;;;;6.06;100.00;99464.94;5018016;28;19917;-84
2023/12/25 19:21:26;;;;;;;;;;;;;;;6.14;100.00;99468.22;5017568;28;20342;-89
2023/12/25 19:23:54;;;;;;;;;;;;;;;5.93;100.00;99472.31;5035350;28;19959;-91
2023/12/25 19:26:22;;;;;;;;;;;;;;;5.90;100.00;99475.88;5035295;28;19913;-87
2023/12/25 19:28:56;;;;;;;;;;;;;;;5.88;100.00;99472.44;5034623;28;19924;-88
2023/12/25 19:31:24;;;;;;;;;;;;;;;5.88;100.00;99472.44;5034136;28;19917;-91
2023/12/25 19:33:49;;;;;;;;;;;;;;;5.74;100.00;99469.34;5034986;28;19992;-93
2023/12/25 19:36:15;;;;;;;;;;;;;;;5.71;100.00;99467.69;5000622;28;20019;-93
2023/12/25 19:38:40;;;;;;;;;;;;;;;5.75;100.00;99457.94;5035238;28;19921;-88
2023/12/25 19:41:05;;;;;;;;;;;;;;;5.74;100.00;99466.72;5034886;28;19921;-89
2023/12/25 19:43:31;;;;;;;;;;;;;;;5.73;100.00;99462.38;5030106;28;19921;-94
2023/12/25 19:45:56;;;;;;;;;;;;;;;5.60;100.00;99470.59;5015704;28;20328;-88
2023/12/25 19:48:21;;;;;;;;;;;;;;;5.58;100.00;99463.66;5034394;28;19990;-94
2023/12/25 19:50:47;;;;;;;;;;;;;;;5.64;100.00;99459.06;5016804;28;19921;-88
2023/12/25 19:53:12;;;;;;;;;;;;;;;5.62;100.00;99460.91;5008553;28;19993;-92
2023/12/25 19:55:37;;;;;;;;;;;;;;;5.58;100.00;99461.88;5034601;28;19940;-90
2023/12/25 19:58:03;;;;;;;;;;;;;;;5.52;100.00;99454.19;5034360;28;19924;-89
2023/12/25 20:00:30;;;;;;;;;;;;;;;5.51;100.00;99452.44;5031832;28;19968;-88
2023/12/25 20:03:03;;;;;;;;;;;;;;;5.55;100.00;99463.72;5033269;28;19940;-89
2023/12/25 20:05:36;;;;;;;;;;;;;;;5.38;100.00;99453.69;5007102;28;19933;-89
2023/12/25 20:08:01;;;;;;;;;;;;;;;5.41;100.00;99456.25;4996838;28;20288;-90
2023/12/25 20:10:32;;;;;;;;;;;;;;;5.39;100.00;99447.53;5014982;28;19917;-90
2023/12/25 20:13:01;;;;;;;;;;;;;;;5.29;100.00;99444.28;4973340;28;19957;-86
2023/12/25 20:15:26;;;;;;;;;;;;;;;5.52;100.00;99454.19;4955495;28;20259;-83
2023/12/25 20:17:51;;;;;;;;;;;;;;;5.42;100.00;99448.28;4972636;28;19925;-83
2023/12/25 20:20:24;;;;;;;;;;;;;;;5.30;100.00;99448.66;4971314;28;20329;-88
2023/12/25 20:22:49;;;;;;;;;;;;;;;5.34;100.00;99438.91;4973800;28;20145;-83
2023/12/25 20:25:16;;;;;;;;;;;;;;;5.24;100.00;99433.88;4972960;28;19999;-85
2023/12/25 20:27:41;;;;;;;;;;;;;;;5.32;100.00;99438.09;4972639;28;19961;-91
2023/12/25 20:30:13;;;;;;;;;;;;;;;5.37;100.00;99433.56;4955671;28;20415;-91
2023/12/25 20:32:38;;;;;;;;;;;;;;;5.27;100.00;99431.19;4956378;28;19922;-86
2023/12/25 20:35:11;;;;;;;;;;;;;;;5.29;100.00;99436.41;4972123;28;19923;-90
2023/12/25 20:37:36;;;;;;;;;;;;;;;5.26;100.00;99442.63;4994505;28;19917;-85
2023/12/25 20:40:02;;;;;;;;;;;;;;;5.21;100.00;99435.75;5013774;28;19933;-87
2023/12/25 20:42:27;;;;;;;;;;;;;;;5.25;100.00;99435.63;4995935;28;20403;-88
2023/12/25 20:44:53;;;;;;;;;;;;;;;5.23;100.00;99442.69;5012192;28;20399;-91
2023/12/25 20:47:18;;;;;;;;;;;;;;;5.14;100.00;99442.94;5013658;28;19981;-89
2023/12/25 20:49:44;;;;;;;;;;;;;;;5.24;100.00;99448.81;5013381;28;20016;-83
2023/12/25 20:52:09;;;;;;;;;;;;;;;5.09;100.00;99448.31;5013736;28;20265;-88
2023/12/25 20:54:35;;;;;;;;;;;;;;;5.16;100.00;99451.63;5013286;28;19921;-87
2023/12/25 20:57:02;;;;;;;;;;;;;;;5.12;100.00;99449.09;5013799;28;19972;-87
2023/12/25 20:59:28;;;;;;;;;;;;;;;6.61;100.00;99444.84;4994812;28;19918;-85
2023/12/25 21:01:58;;;;;;;;;;;;;;;8.03;100.00;99428.50;4993853;28;22097;-87
2023/12/25 21:04:23;;;;;;;;;;;;;;;6.03;100.00;99433.47;4995390;28;19952;-88
2023/12/25 21:06:49;;;;;;;;;;;;;;;5.49;100.00;99430.63;5011962;28;20065;-89
2023/12/25 21:09:20;;;;;;;;;;;;;;;5.38;100.00;99427.41;5013679;28;19930;-91
2023/12/25 21:11:45;;;;;;;;;;;;;;;5.34;100.00;99428.41;5010508;28;20299;-89
2023/12/25 21:14:13;;;;;;;;;;;;;;;5.35;100.00;99430.97;4995100;28;19917;-89
2023/12/25 21:16:42;;;;;;;;;;;;;;;5.27;100.00;99423.31;4994200;28;20265;-92
2023/12/25 21:19:19;;;;;;;;;;;;;;;5.14;100.00;99429.78;4993483;28;20337;-88
2023/12/25 21:21:50;;;;;;;;;;;;;;;5.11;100.00;99423.78;5012975;28;19920;-94
2023/12/25 21:24:15;;;;;;;;;;;;;;;7.41;100.00;99420.22;5012858;28;20028;-84
2023/12/25 21:26:41;;;;;;;;;;;;;;;10.83;100.00;99394.25;5012752;28;20412;-90
2023/12/25 21:29:12;;;;;;;;;;;;;;;6.40;100.00;99404.28;5012672;28;19964;-93
2023/12/25 21:31:42;;;;;;;;;;;;;;;5.51;100.00;99415.66;5011954;28;20348;-88
2023/12/25 21:34:08;;;;;;;;;;;;;;;5.32;100.00;99411.81;4994462;28;19967;-86
2023/12/25 21:36:33;;;;;;;;;;;;;;;5.16;100.00;99412.22;5012866;28;19921;-89
2023/12/25 21:39:02;;;;;;;;;;;;;;;5.19;100.00;99406.88;5012858;28;19918;-89
2023/12/25 21:41:29;;;;;;;;;;;;;;;5.18;100.00;99415.66;4994353;28;19922;-87
2023/12/25 21:43:54;;;;;;;;;;;;;;;5.16;100.00;99417.47;5013552;28;19922;-88
2023/12/25 21:46:22;;;;;;;;;;;;;;;5.08;100.00;99416.81;5013087;28;19939;-94
2023/12/25 21:48:49;;;;;;;;;;;;;;;5.23;100.00;99413.78;5013160;28;19925;-89
2023/12/25 21:51:15;;;;;;;;;;;;;;;5.16;100.00;99417.47;5013285;28;19925;-89
2023/12/25 21:53:43;;;;;;;;;;;;;;;5.27;100.00;99410.16;5012376;28;19924;-92
2023/12/25 21:56:15;;;;;;;;;;;;;;;5.14;100.00;99415.78;4994323;28;19960;-87
2023/12/25 21:58:40;;;;;;;;;;;;;;;5.32;100.00;99409.19;5011648;28;20392;-87
2023/12/25 22:01:05;;;;;;;;;;;;;;;5.38;100.00;99404.63;5011715;28;19922;-90
2023/12/25 22:03:30;;;;;;;;;;;;;;;5.36;100.00;99406.44;5012918;28;19917;-87
2023/12/25 22:05:56;;;;;;;;;;;;;;;5.32;100.00;99390.81;5011802;28;20054;-85
2023/12/25 22:08:22;;;;;;;;;;;;;;;5.23;100.00;99405.91;5027524;28;19952;-88
2023/12/25 22:10:48;;;;;;;;;;;;;;;5.44;100.00;99391.31;4993099;28;19917;-88
2023/12/25 22:13:14;;;;;;;;;;;;;;;5.48;100.00;99397.34;4993742;28;20012;-84
2023/12/25 22:15:39;;;;;;;;;;;;;;;5.42;100.00;99392.25;5010279;28;20012;-87
2023/12/25 22:18:05;;;;;;;;;;;;;;;5.33;100.00;99401.28;5012135;28;19930;-89
2023/12/25 22:20:30;;;;;;;;;;;;;;;5.36;100.00;99408.19;4994564;28;20088;-86
2023/12/25 22:22:59;;;;;;;;;;;;;;;5.42;100.00;99406.25;4994113;28;19918;-90
2023/12/25 22:25:27;;;;;;;;;;;;;;;5.48;100.00;99394.72;4994415;28;19957;-88
2023/12/25 22:27:52;;;;;;;;;;;;;;;5.28;100.00;99400.50;5011539;28;20265;-86
2023/12/25 22:30:20;;;;;;;;;;;;;;;5.32;100.00;99404.78;5011388;28;19924;-88
2023/12/25 22:32:49;;;;;;;;;;;;;;;5.41;100.00;99403.69;5026540;28;19925;-91
2023/12/25 22:35:14;;;;;;;;;;;;;;;5.41;100.00;99404.53;4993440;28;19921;-91
2023/12/25 22:37:40;;;;;;;;;;;;;;;5.51;100.00;99405.13;5011741;28;19927;-85
2023/12/25 22:40:06;;;;;;;;;;;;;;;5.41;100.00;99401.06;5011327;28;19917;-89
2023/12/25 22:42:32;;;;;;;;;;;;;;;5.60;100.00;99399.63;5011731;28;19925;-88
2023/12/25 22:44:57;;;;;;;;;;;;;;;5.54;100.00;99399.81;5010415;28;20041;-87
2023/12/25 22:47:23;;;;;;;;;;;;;;;5.46;100.00;99397.38;4993268;28;19922;-90
2023/12/25 22:50:17;;;;;;;;;;;;;;;5.50;100.00;99392.91;4992720;28;19956;-92
2023/12/25 22:52:42;;;;;;;;;;;;;;;5.43;100.00;99392.22;5004176;28;19917;-86
2023/12/25 22:55:10;;;;;;;;;;;;;;;5.52;100.00;99396.38;5012054;28;19918;-86
2023/12/25 22:57:35;;;;;;;;;;;;;;;5.63;100.00;99402.19;4993184;28;20030;-88
2023/12/25 23:00:05;;;;;;;;;;;;;;;5.70;100.00;99405.47;4992443;28;19929;-87
2023/12/25 23:02:30;;;;;;;;;;;;;;;5.71;100.00;99407.22;4993184;28;19967;-84
2023/12/25 23:04:55;;;;;;;;;;;;;;;5.63;100.00;99401.28;4991763;28;19934;-86
2023/12/25 23:07:30;;;;;;;;;;;;;;;5.56;100.00;99405.88;5011430;28;19939;-88
2023/12/25 23:09:55;;;;;;;;;;;;;;;5.56;100.00;99395.34;5010537;28;21608;-85
2023/12/25 23:12:21;;;;;;;;;;;;;;;5.56;100.00;99397.97;4994106;28;19928;-89
2023/12/25 23:14:52;;;;;;;;;;;;;;;5.52;100.00;99401.63;5010458;28;20420;-94
2023/12/25 23:17:18;;;;;;;;;;;;;;;5.49;100.00;99413.97;5012125;28;19917;-88
2023/12/25 23:19:43;;;;;;;;;;;;;;;5.67;100.00;99409.97;4997586;28;19960;-90
2023/12/25 23:22:09;;;;;;;;;;;;;;;5.56;100.00;99405.88;5015538;28;20091;-90
2023/12/25 23:24:35;;;;;;;;;;;;;;;5.61;100.00;99416.25;5015120;28;19968;-89
2023/12/25 23:27:00;;;;;;;;;;;;;;;5.62;100.00;99408.31;4987969;28;20454;-87
2023/12/25 23:29:25;;;;;;;;;;;;;;;5.61;100.00;99411.84;5015153;28;19964;-88
2023/12/25 23:31:51;;;;;;;;;;;;;;;5.60;100.00;99411.88;4996134;28;19921;-84
2023/12/25 23:34:17;;;;;;;;;;;;;;;5.57;100.00;99412.84;5014311;28;20008;-85
2023/12/25 23:36:42;;;;;;;;;;;;;;;5.57;100.00;99409.38;5014658;28;19932;-83
2023/12/25 23:39:07;;;;;;;;;;;;;;;5.58;100.00;99404.03;5014543;28;19921;-83
2023/12/25 23:41:33;;;;;;;;;;;;;;;5.42;100.00;99410.66;5014789;28;19921;-88
2023/12/25 23:43:58;;;;;;;;;;;;;;;5.45;100.00;99400.91;5029563;28;20373;-86
2023/12/25 23:46:23;;;;;;;;;;;;;;;5.48;100.00;99410.47;4995266;28;19944;-88
2023/12/25 23:48:49;;;;;;;;;;;;;;;5.54;100.00;99397.16;5014751;28;19928;-92
2023/12/25 23:51:14;;;;;;;;;;;;;;;5.52;100.00;99404.25;5014410;28;20203;-85
2023/12/25 23:53:39;;;;;;;;;;;;;;;5.48;100.00;99405.22;4995910;28;19952;-87
2023/12/25 23:56:05;;;;;;;;;;;;;;;5.36;100.00;99410.81;5014541;28;19932;-87
2023/12/25 23:58:30;;;;;;;;;;;;;;;5.50;100.00;99392.91;4995656;28;19956;-89
